createdAt,value
2022-11-17T05:04:33.051Z,9.18
2022-11-17T05:06:34.255Z,8.98
2022-11-17T05:08:35.898Z,8.9
2022-11-17T05:12:38.985Z,8.83
2022-11-17T05:14:40.143Z,8.85
2022-11-17T05:16:41.876Z,8.76
2022-11-17T05:18:43.069Z,8.74
2022-11-17T05:20:44.469Z,8.74
2022-11-17T05:22:45.833Z,8.82
2022-11-17T05:24:47.351Z,8.74
2022-11-17T05:26:49.058Z,8.78
2022-11-17T05:28:50.656Z,8.8
2022-11-17T05:30:51.925Z,8.73
2022-11-17T05:32:53.496Z,8.68
2022-11-17T05:34:54.780Z,8.65
2022-11-17T05:36:56.270Z,8.63
2022-11-17T05:38:58.063Z,8.68
2022-11-17T05:40:59.806Z,8.64
2022-11-17T05:43:00.751Z,8.64
2022-11-17T05:45:01.980Z,8.64
2022-11-17T05:47:03.792Z,8.57
2022-11-17T05:49:05.312Z,8.58
2022-11-17T05:51:07.081Z,8.65
2022-11-17T05:53:08.359Z,8.61
2022-11-17T05:55:10.156Z,8.59
2022-11-17T05:57:11.467Z,8.59
2022-11-17T05:59:13.306Z,8.62
2022-11-17T06:01:14.536Z,8.69
2022-11-17T06:03:15.533Z,8.7
2022-11-17T06:05:20.131Z,8.65
2022-11-17T06:07:17.772Z,8.64
2022-11-17T06:09:18.793Z,8.65
2022-11-17T06:11:20.322Z,8.64
2022-11-17T06:13:22.227Z,8.58
2022-11-17T06:15:23.946Z,8.59
2022-11-17T06:17:25.593Z,8.61
2022-11-17T06:19:26.701Z,8.69
2022-11-17T06:21:38.017Z,8.75
2022-11-17T06:23:29.937Z,8.73
2022-11-17T06:25:31.469Z,8.78
2022-11-17T06:27:32.818Z,8.8
2022-11-17T06:29:34.347Z,8.79
2022-11-17T06:31:35.715Z,8.78
2022-11-17T06:33:37.775Z,8.68
2022-11-17T06:35:38.629Z,8.72
2022-11-17T06:37:39.986Z,8.86
2022-11-17T06:39:41.840Z,8.78
2022-11-17T06:41:43.749Z,8.91
2022-11-17T06:43:44.863Z,8.93
2022-11-17T06:45:46.660Z,8.94
2022-11-17T06:47:47.686Z,8.89
2022-11-17T06:48:31.533Z,8.9
2022-11-17T06:50:33.364Z,8.85
2022-11-17T06:52:35.072Z,8.99
2022-11-17T06:54:36.923Z,9.06
2022-11-17T06:56:38.363Z,9.04
2022-11-17T06:58:40.171Z,9.06
2022-11-17T07:00:42.025Z,9.05
2022-11-17T07:02:43.062Z,9.04
2022-11-17T07:04:44.025Z,9.03
2022-11-17T07:06:45.161Z,9.04
2022-11-17T07:08:46.217Z,9.04
2022-11-17T07:10:49.382Z,9.01
2022-11-17T07:12:48.691Z,9.05
2022-11-17T07:14:50.155Z,9.05
2022-11-17T07:16:51.826Z,9.05
2022-11-17T07:18:52.963Z,9.05
2022-11-17T07:20:54.492Z,9.02
2022-11-17T07:22:55.675Z,9.01
2022-11-17T07:24:56.779Z,9.06
2022-11-17T07:26:58.591Z,9.13
2022-11-17T07:28:59.589Z,9.19
2022-11-17T07:31:01.220Z,9.18
2022-11-17T07:33:02.951Z,9.07
2022-11-17T07:35:04.807Z,9.18
2022-11-17T07:37:06.556Z,9.21
2022-11-17T07:39:07.725Z,9.26
2022-11-17T07:41:08.848Z,9.3
2022-11-17T07:43:10.797Z,9.23
2022-11-17T07:45:12.119Z,9.23
2022-11-17T07:47:13.277Z,9.15
2022-11-17T07:49:15.068Z,9.05
2022-11-17T07:51:16.574Z,9.01
2022-11-17T07:53:27.350Z,9.3
2022-11-17T07:55:19.933Z,9.44
2022-11-17T07:57:21.686Z,9.32
2022-11-17T07:59:22.782Z,9.3
2022-11-17T08:01:24.422Z,9.3
2022-11-17T08:03:26.254Z,9.3
2022-11-17T08:05:27.255Z,9.29
2022-11-17T08:07:28.339Z,9.27
2022-11-17T08:09:29.295Z,9.31
2022-11-17T08:13:32.217Z,9.38
2022-11-17T08:15:33.857Z,9.45
2022-11-17T08:17:35.238Z,9.49
2022-11-17T08:19:36.522Z,9.55
2022-11-17T08:21:38.133Z,9.53
2022-11-17T08:23:39.707Z,9.63
2022-11-17T08:25:41.199Z,9.66
2022-11-17T08:27:52.111Z,9.72
2022-11-17T08:29:44.736Z,9.74
2022-11-17T08:31:46.017Z,9.72
2022-11-17T08:33:47.850Z,9.65
2022-11-17T08:35:48.814Z,9.67
2022-11-17T08:37:49.837Z,9.7
2022-11-17T08:39:51.463Z,9.76
2022-11-17T08:41:52.535Z,9.83
2022-11-17T08:43:53.787Z,9.82
2022-11-17T08:45:55.059Z,9.9
2022-11-17T08:47:56.774Z,9.98
2022-11-17T08:49:57.779Z,10
2022-11-17T08:51:59.176Z,10.03
2022-11-17T08:54:00.817Z,10.09
2022-11-17T08:56:01.863Z,10.17
2022-11-17T08:58:03.594Z,10.26
2022-11-17T09:00:05.183Z,10.27
2022-11-17T09:02:06.861Z,10.28
2022-11-17T09:04:08.048Z,10.25
2022-11-17T09:06:09.340Z,10.23
2022-11-17T09:08:38.300Z,10.26
2022-11-17T09:10:12.206Z,10.21
2022-11-17T09:12:13.955Z,10.17
2022-11-17T09:14:14.888Z,10.07
2022-11-17T09:16:16.700Z,10.05
2022-11-17T09:18:18.039Z,10.09
2022-11-17T09:20:19.796Z,10.12
2022-11-17T09:22:20.626Z,10.14
2022-11-17T09:24:22.183Z,10.22
2022-11-17T09:26:23.578Z,10.3
2022-11-17T09:28:24.620Z,10.35
2022-11-17T09:30:26.471Z,10.5
2022-11-17T09:32:28.027Z,10.88
2022-11-17T09:34:29.643Z,11.05
2022-11-17T09:36:30.610Z,11.08
2022-11-17T09:38:31.932Z,11.37
2022-11-17T09:40:37.619Z,11.44
2022-11-17T09:42:34.291Z,11.36
2022-11-17T09:44:35.866Z,11.34
2022-11-17T09:46:37.056Z,11.29
2022-11-17T09:48:41.337Z,11.19
2022-11-17T09:50:39.705Z,11.15
2022-11-17T09:52:41.316Z,11.18
2022-11-17T09:54:43.169Z,11.15
2022-11-17T09:56:44.899Z,11.17
2022-11-17T09:58:46.003Z,11.18
2022-11-17T10:00:47.456Z,11.21
2022-11-17T10:02:48.476Z,11.21
2022-11-17T10:04:49.752Z,11.17
2022-11-17T10:06:51.270Z,11.28
2022-11-17T10:08:52.355Z,11.31
2022-11-17T10:10:53.971Z,11.27
2022-11-17T10:12:55.617Z,11.25
2022-11-17T10:14:57.359Z,11.28
2022-11-17T10:16:59.201Z,11.33
2022-11-17T10:19:00.920Z,11.29
2022-11-17T10:21:01.947Z,11.24
2022-11-17T10:23:03.572Z,11.28
2022-11-17T10:25:05.045Z,11.23
2022-11-17T10:27:05.973Z,11.16
2022-11-17T10:29:08.651Z,11.17
2022-11-17T10:31:08.615Z,11.18
2022-11-17T10:33:09.697Z,11.24
2022-11-17T10:35:11.556Z,11.31
2022-11-17T10:37:12.787Z,11.31
2022-11-17T10:39:17.679Z,11.34
2022-11-17T10:41:16.046Z,11.33
2022-11-17T10:43:17.968Z,11.3
2022-11-17T10:45:18.871Z,11.34
2022-11-17T10:47:20.205Z,11.34
2022-11-17T10:49:21.731Z,11.41
2022-11-17T10:51:23.166Z,11.44
2022-11-17T10:53:24.579Z,11.47
2022-11-17T10:55:25.973Z,11.47
2022-11-17T10:57:27.576Z,11.54
2022-11-17T10:59:28.578Z,11.55
2022-11-17T11:01:29.566Z,11.61
2022-11-17T11:03:30.627Z,11.6
2022-11-17T11:05:31.700Z,11.64
2022-11-17T11:07:33.264Z,11.64
2022-11-17T11:09:34.584Z,11.55
2022-11-17T11:11:36.605Z,11.38
2022-11-17T11:13:37.332Z,11.29
2022-11-17T11:15:38.918Z,11.14
2022-11-17T11:17:40.083Z,11
2022-11-17T11:19:41.623Z,10.85
2022-11-17T11:21:42.880Z,10.6
2022-11-17T11:23:44.477Z,10.19
2022-11-17T11:25:45.786Z,9.85
2022-11-17T11:27:46.807Z,9.73
2022-11-17T11:29:48.026Z,9.68
2022-11-17T11:31:49.217Z,9.64
2022-11-17T11:33:51.009Z,9.54
2022-11-17T11:35:52.307Z,9.37
2022-11-17T11:37:53.287Z,9.25
2022-11-17T11:39:54.423Z,9.16
2022-11-17T11:41:55.638Z,9.13
2022-11-17T11:43:56.571Z,9.05
2022-11-17T11:45:58.128Z,9.06
2022-11-17T11:47:59.607Z,9.15
2022-11-17T11:50:00.716Z,9.1
2022-11-17T11:52:02.463Z,9.11
2022-11-17T11:54:04.047Z,9.09
2022-11-17T11:56:05.543Z,9.06
2022-11-17T11:58:07.470Z,9.01
2022-11-17T12:00:08.998Z,9.01
2022-11-17T12:02:10.779Z,9.02
2022-11-17T12:04:12.061Z,9.06
2022-11-17T12:06:12.916Z,9.02
2022-11-17T12:08:14.472Z,9
2022-11-17T12:10:15.819Z,8.99
2022-11-17T12:12:17.143Z,8.99
2022-11-17T12:14:18.211Z,8.97
2022-11-17T12:16:19.167Z,9.02
2022-11-17T12:18:20.483Z,9.11
2022-11-17T12:20:22.321Z,9.11
2022-11-17T12:22:24.083Z,9.25
2022-11-17T12:24:25.619Z,9.31
2022-11-17T12:26:26.557Z,9.36
2022-11-17T12:28:28.446Z,9.48
2022-11-17T12:30:30.303Z,9.48
2022-11-17T12:32:31.291Z,9.54
2022-11-17T12:34:32.485Z,9.56
2022-11-17T12:36:33.791Z,9.7
2022-11-17T12:38:35.188Z,9.77
2022-11-17T12:40:36.969Z,9.77
2022-11-17T12:42:38.510Z,10.24
2022-11-17T12:44:40.966Z,10.38
2022-11-17T12:46:42.538Z,10.46
2022-11-17T12:48:43.489Z,10.54
2022-11-17T12:50:44.665Z,10.43
2022-11-17T12:52:46.128Z,10.44
2022-11-17T12:54:47.032Z,10.42
2022-11-17T12:56:48.298Z,10.41
2022-11-17T12:58:50.003Z,10.36
2022-11-17T13:00:51.964Z,10.4
2022-11-17T13:02:52.956Z,10.35
2022-11-17T13:04:54.708Z,10.35
2022-11-17T13:06:55.825Z,10.44
2022-11-17T13:08:57.002Z,10.48
2022-11-17T13:10:58.224Z,10.52
2022-11-17T13:12:59.688Z,10.64
2022-11-17T13:15:01.048Z,10.57
2022-11-17T13:17:02.266Z,10.68
2022-11-17T13:19:03.843Z,10.78
2022-11-17T13:21:05.289Z,10.8
2022-11-17T13:23:06.714Z,11.02
2022-11-17T13:25:08.390Z,11.3
2022-11-17T13:27:10.067Z,11.45
2022-11-17T13:29:11.078Z,11.53
2022-11-17T13:31:12.439Z,11.82
2022-11-17T13:33:14.076Z,11.85
2022-11-17T13:35:59.168Z,11.69
2022-11-17T13:38:00.689Z,11.42
2022-11-17T13:40:02.352Z,11.26
2022-11-17T13:42:03.689Z,11.12
2022-11-17T13:44:04.979Z,11.06
2022-11-17T13:46:06.519Z,10.94
2022-11-17T13:48:08.028Z,11.01
2022-11-17T13:50:09.327Z,10.95
2022-11-17T13:52:10.919Z,10.94
2022-11-17T13:54:13.028Z,10.95
2022-11-17T13:56:14.450Z,10.89
2022-11-17T13:58:20.582Z,10.93
2022-11-17T14:00:16.841Z,10.95
2022-11-17T14:02:18.210Z,10.81
2022-11-17T14:04:20.465Z,10.81
2022-11-17T14:06:21.303Z,10.76
2022-11-17T14:08:22.366Z,10.67
2022-11-17T14:10:23.372Z,10.64
2022-11-17T14:12:24.806Z,10.6
2022-11-17T14:14:26.447Z,10.51
2022-11-17T14:16:27.464Z,10.45
2022-11-17T14:18:29.209Z,10.42
2022-11-17T14:20:30.386Z,10.35
2022-11-17T14:22:32.253Z,10.32
2022-11-17T14:24:33.346Z,10.26
2022-11-17T14:26:34.501Z,10.25
2022-11-17T14:28:36.109Z,10.31
2022-11-17T14:30:37.761Z,10.29
2022-11-17T14:32:38.799Z,10.23
2022-11-17T14:34:40.219Z,10.15
2022-11-17T14:36:41.813Z,10.16
2022-11-17T14:38:43.717Z,10.2
2022-11-17T14:40:45.626Z,10.09
2022-11-17T14:42:47.572Z,10.28
2022-11-17T14:44:48.450Z,10.21
2022-11-17T14:46:49.444Z,10.2
2022-11-17T14:48:50.772Z,10.2
2022-11-17T14:50:52.076Z,10.12
2022-11-17T14:52:53.389Z,10.06
2022-11-17T14:54:54.754Z,9.96
2022-11-17T14:56:56.003Z,9.89
2022-11-17T14:58:57.693Z,9.84
2022-11-17T15:00:59.236Z,9.85
2022-11-17T15:03:00.501Z,9.73
2022-11-17T15:05:01.742Z,9.7
2022-11-17T15:07:03.369Z,9.72
2022-11-17T15:09:04.564Z,9.65
2022-11-17T15:11:06.019Z,9.59
2022-11-17T15:13:07.281Z,9.56
2022-11-17T15:15:08.349Z,9.51
2022-11-17T15:17:12.911Z,9.51
2022-11-17T15:19:10.956Z,9.44
2022-11-17T15:21:12.414Z,9.42
2022-11-17T15:23:14.237Z,9.42
2022-11-17T15:25:15.577Z,9.51
2022-11-17T15:27:16.536Z,9.45
2022-11-17T15:29:18.342Z,9.43
2022-11-17T15:31:19.746Z,9.37
2022-11-17T15:33:20.707Z,9.36
2022-11-17T15:35:21.940Z,9.33
2022-11-17T15:37:23.623Z,9.29
2022-11-17T15:39:24.928Z,9.22
2022-11-17T15:41:29.879Z,9.16
2022-11-17T15:43:27.814Z,9.15
2022-11-17T15:45:29.717Z,9.13
2022-11-17T15:47:31.133Z,9.06
2022-11-17T15:49:32.737Z,9.04
2022-11-17T15:51:33.755Z,9.03
2022-11-17T15:53:35.370Z,9.01
2022-11-17T15:55:36.611Z,8.97
2022-11-17T15:57:37.935Z,8.92
2022-11-17T16:01:41.446Z,8.87
2022-11-17T16:03:43.148Z,8.86
2022-11-17T16:05:44.568Z,8.84
2022-11-17T16:09:49.130Z,8.87
2022-11-17T16:11:49.718Z,8.86
2022-11-17T16:13:51.328Z,8.97
2022-11-17T16:15:52.538Z,8.92
2022-11-17T16:17:53.553Z,8.9
2022-11-17T16:19:54.501Z,8.86
2022-11-17T16:21:55.891Z,8.8
2022-11-17T16:23:57.863Z,8.7
2022-11-17T16:25:58.816Z,8.6
2022-11-17T16:28:00.356Z,8.53
2022-11-17T16:30:01.319Z,8.53
2022-11-17T16:32:02.934Z,8.52
2022-11-17T16:34:04.196Z,8.52
2022-11-17T16:36:05.199Z,8.57
2022-11-17T16:38:06.899Z,8.58
2022-11-17T16:40:08.724Z,8.55
2022-11-17T16:42:10.238Z,8.52
2022-11-17T16:44:11.816Z,8.47
2022-11-17T16:46:13.304Z,8.39
2022-11-17T16:48:14.329Z,8.36
2022-11-17T16:50:15.935Z,8.3
2022-11-17T16:52:16.922Z,8.3
2022-11-17T16:54:17.907Z,8.29
2022-11-17T16:56:19.728Z,8.34
2022-11-17T16:58:21.551Z,8.49
2022-11-17T17:00:22.747Z,8.62
2022-11-17T17:02:24.333Z,8.68
2022-11-17T17:04:25.403Z,8.66
2022-11-17T17:06:26.812Z,8.61
2022-11-17T17:08:27.923Z,8.63
2022-11-17T17:10:29.567Z,8.67
2022-11-17T17:12:30.492Z,8.86
2022-11-17T17:14:32.451Z,9.02
2022-11-17T17:16:33.909Z,9.02
2022-11-17T17:18:35.474Z,9
2022-11-17T17:20:37.282Z,8.76
2022-11-17T17:22:38.374Z,8.69
2022-11-17T17:24:40.050Z,8.59
2022-11-17T17:26:41.880Z,8.54
2022-11-17T17:28:43.692Z,8.51
2022-11-17T17:30:44.669Z,8.48
2022-11-17T17:32:46.054Z,8.49
2022-11-17T17:34:47.900Z,8.5
2022-11-17T17:36:49.748Z,8.51
2022-11-17T17:38:55.289Z,8.47
2022-11-17T17:40:52.432Z,8.56
2022-11-17T17:42:53.619Z,8.57
2022-11-17T17:44:55.474Z,8.57
2022-11-17T17:46:57.233Z,8.59
2022-11-17T17:48:58.465Z,8.6
2022-11-17T17:50:59.765Z,8.58
2022-11-17T17:53:00.721Z,8.61
2022-11-17T17:55:02.553Z,8.57
2022-11-17T17:57:04.255Z,8.53
2022-11-17T17:59:05.757Z,8.54
2022-11-17T18:01:06.806Z,8.53
2022-11-17T18:03:08.675Z,8.52
2022-11-17T18:05:10.379Z,8.5
2022-11-17T18:07:12.063Z,8.5
2022-11-17T18:09:13.196Z,8.48
2022-11-17T18:11:14.331Z,8.46
2022-11-17T18:13:15.701Z,8.5
2022-11-17T18:15:17.503Z,8.45
2022-11-17T18:17:18.935Z,8.4
2022-11-17T18:19:20.375Z,8.35
2022-11-17T18:21:22.115Z,8.37
2022-11-17T18:23:23.052Z,8.45
2022-11-17T18:25:24.228Z,8.43
2022-11-17T18:27:25.947Z,8.45
2022-11-17T18:29:27.550Z,8.41
2022-11-17T18:31:28.539Z,8.42
2022-11-17T18:33:30.282Z,8.38
2022-11-17T18:35:31.900Z,8.35
2022-11-17T18:37:33.444Z,8.31
2022-11-17T18:39:35.106Z,8.3
2022-11-17T18:41:36.798Z,8.29
2022-11-17T18:43:38.163Z,8.29
2022-11-17T18:45:39.886Z,8.31
2022-11-17T18:47:41.278Z,8.43
2022-11-17T18:49:42.800Z,8.53
2022-11-17T18:51:44.724Z,8.59
2022-11-17T18:53:45.969Z,8.75
2022-11-17T18:55:47.552Z,8.82
2022-11-17T18:57:49.459Z,8.91
2022-11-17T18:59:51.388Z,9.01
2022-11-17T19:01:53.146Z,9.11
2022-11-17T19:03:54.457Z,9.19
2022-11-17T19:05:56.275Z,9.24
2022-11-17T19:07:58.067Z,9.2
2022-11-17T19:09:59.218Z,9.2
2022-11-17T19:12:00.618Z,9.16
2022-11-17T19:14:02.122Z,9.09
2022-11-17T19:16:03.775Z,9.1
2022-11-17T19:18:05.469Z,9.17
2022-11-17T19:20:06.892Z,9.18
2022-11-17T19:22:08.192Z,9.17
2022-11-17T19:24:09.382Z,9.22
2022-11-17T19:26:10.856Z,9.15
2022-11-17T19:28:12.756Z,9.13
2022-11-17T19:30:14.077Z,9.11
2022-11-17T19:32:15.145Z,9.07
2022-11-17T19:34:17.074Z,9.05
2022-11-17T19:36:18.106Z,9.03
2022-11-17T19:38:19.328Z,9.04
2022-11-17T19:40:21.045Z,9.02
2022-11-17T19:42:22.390Z,9.05
2022-11-17T19:44:23.809Z,9.13
2022-11-17T19:46:25.016Z,9.13
2022-11-17T19:48:26.588Z,9.06
2022-11-17T19:50:28.532Z,9.04
2022-11-17T19:52:30.378Z,9.08
2022-11-17T19:54:32.244Z,9.03
2022-11-17T19:56:34.063Z,8.98
2022-11-17T19:58:35.694Z,9.17
2022-11-17T20:00:37.074Z,9.17
2022-11-17T20:02:38.546Z,9.02
2022-11-17T20:04:39.898Z,9.04
2022-11-17T20:06:41.160Z,8.96
2022-11-17T20:08:42.343Z,9.05
2022-11-17T20:10:43.603Z,9.07
2022-11-17T20:12:44.926Z,9.05
2022-11-17T20:14:46.399Z,9.04
2022-11-17T20:16:47.486Z,8.88
2022-11-17T20:18:48.686Z,8.73
2022-11-17T20:21:33.884Z,8.68
2022-11-17T20:23:35.765Z,8.68
2022-11-17T20:25:37.466Z,8.66
2022-11-17T20:27:39.187Z,8.7
2022-11-17T20:29:40.571Z,8.69
2022-11-17T20:31:41.683Z,8.68
2022-11-17T20:33:43.592Z,8.64
2022-11-17T20:35:44.943Z,8.68
2022-11-17T20:37:46.820Z,8.69
2022-11-17T20:39:48.515Z,8.65
2022-11-17T20:41:49.669Z,8.64
2022-11-17T20:43:51.479Z,8.56
2022-11-17T20:45:52.819Z,8.52
2022-11-17T20:47:54.626Z,8.47
2022-11-17T20:49:56.393Z,8.46
2022-11-17T20:51:57.475Z,8.5
2022-11-17T20:53:58.534Z,8.51
2022-11-17T20:56:00.042Z,8.51
2022-11-17T20:58:01.563Z,8.44
2022-11-17T21:00:03.280Z,8.4
2022-11-17T21:02:04.339Z,8.39
2022-11-17T21:04:05.501Z,8.4
2022-11-17T21:06:07.409Z,8.42
2022-11-17T21:08:08.647Z,8.37
2022-11-17T21:10:10.448Z,8.37
2022-11-17T21:12:11.699Z,8.39
2022-11-17T21:14:13.042Z,8.42
2022-11-17T21:16:14.431Z,8.51
2022-11-17T21:18:15.862Z,8.54
2022-11-17T21:20:17.819Z,8.52
2022-11-17T21:22:19.533Z,8.51
2022-11-17T21:24:21.379Z,8.54
2022-11-17T21:26:22.482Z,8.5
2022-11-17T21:28:24.002Z,8.45
2022-11-17T21:30:25.044Z,8.53
2022-11-17T21:32:26.442Z,8.55
2022-11-17T21:34:28.139Z,8.62
2022-11-17T21:36:30.055Z,8.62
2022-11-17T21:38:31.312Z,8.68
2022-11-17T21:40:32.994Z,8.63
2022-11-17T21:42:34.103Z,8.58
2022-11-17T21:44:35.611Z,8.61
2022-11-17T21:46:37.281Z,8.64
2022-11-17T21:48:38.740Z,8.61
2022-11-17T21:50:40.503Z,8.57
2022-11-17T21:52:41.727Z,8.56
2022-11-17T21:54:43.323Z,8.47
2022-11-17T21:56:44.633Z,8.42
2022-11-17T21:58:45.599Z,8.39
2022-11-17T22:00:46.945Z,8.38
2022-11-17T22:02:47.932Z,8.5
2022-11-17T22:04:48.929Z,8.52
2022-11-17T22:06:50.477Z,8.56
2022-11-17T22:08:51.993Z,8.57
2022-11-17T22:10:53.475Z,8.56
2022-11-17T22:12:55.341Z,8.54
2022-11-17T22:14:56.753Z,8.63
2022-11-17T22:16:58.047Z,8.55
2022-11-17T22:18:59.208Z,8.58
2022-11-17T22:21:01.112Z,8.63
2022-11-17T22:23:02.659Z,8.54
2022-11-17T22:25:23.107Z,8.54
2022-11-17T22:27:05.900Z,8.54
2022-11-17T22:29:07.837Z,8.49
2022-11-17T22:31:09.664Z,8.5
2022-11-17T22:33:10.705Z,8.49
2022-11-17T22:35:11.780Z,8.49
2022-11-17T22:37:13.214Z,8.4
2022-11-17T22:39:14.551Z,8.35
2022-11-17T22:41:15.342Z,8.31
2022-11-17T22:43:17.159Z,8.24
2022-11-17T22:45:18.837Z,8.28
2022-11-17T22:47:19.842Z,8.22
2022-11-17T22:49:21.751Z,8.22
2022-11-17T22:51:22.769Z,8.13
2022-11-17T22:53:23.726Z,8.15
2022-11-17T22:55:25.269Z,8.25
2022-11-17T22:57:26.464Z,8.3
2022-11-17T22:59:27.701Z,8.23
2022-11-17T23:01:29.399Z,8.21
2022-11-17T23:03:30.503Z,8.3
2022-11-17T23:05:31.514Z,8.33
2022-11-17T23:07:33.408Z,8.3
2022-11-17T23:09:35.054Z,8.26
2022-11-17T23:11:37.753Z,8.37
2022-11-17T23:13:38.473Z,8.47
2022-11-17T23:15:39.981Z,8.43
2022-11-17T23:17:41.791Z,8.44
2022-11-17T23:19:43.266Z,8.51
2022-11-17T23:21:45.096Z,8.6
2022-11-17T23:23:46.083Z,8.65
2022-11-17T23:25:47.146Z,8.63
2022-11-17T23:27:48.720Z,8.64
2022-11-17T23:29:50.100Z,8.6
2022-11-17T23:31:51.676Z,8.6
2022-11-17T23:33:52.755Z,8.63
2022-11-17T23:35:54.000Z,8.62
2022-11-17T23:37:55.091Z,8.61
2022-11-17T23:39:56.594Z,8.63
2022-11-17T23:41:58.209Z,8.56
2022-11-17T23:43:59.452Z,8.54
2022-11-17T23:46:00.907Z,8.44
2022-11-17T23:48:02.722Z,8.43
2022-11-17T23:50:04.163Z,8.37
2022-11-17T23:52:05.388Z,8.36
2022-11-17T23:54:06.433Z,8.36
2022-11-17T23:56:07.604Z,8.33
2022-11-17T23:58:08.795Z,8.36
